sensor_id;sensor_type;location;lat;lon;timestamp;pressure;altitude;pressure_sealevel;temperature;humidity
47330;BME280;33060;50.178;7.570;2023-12-07T00:02:18;97278.97;;;3.83;100.00
47330;BME280;33060;50.178;7.570;2023-12-07T00:04:45;97283.00;;;4.12;100.00
47330;BME280;33060;50.178;7.570;2023-12-07T00:07:12;97280.47;;;3.89;100.00
47330;BME280;33060;50.178;7.570;2023-12-07T00:09:38;97282.63;;;4.21;100.00
47330;BME280;33060;50.178;7.570;2023-12-07T00:12:05;97284.72;;;4.34;100.00
47330;BME280;33060;50.178;7.570;2023-12-07T00:14:32;97284.88;;;4.51;100.00
47330;BME280;33060;50.178;7.570;2023-12-07T00:16:59;97290.63;;;4.39;100.00
47330;BME280;33060;50.178;7.570;2023-12-07T00:19:26;97290.34;;;3.59;100.00
47330;BME280;33060;50.178;7.570;2023-12-07T00:21:52;97288.94;;;3.74;100.00
47330;BME280;33060;50.178;7.570;2023-12-07T00:24:19;97290.69;;;3.95;100.00
47330;BME280;33060;50.178;7.570;2023-12-07T00:26:46;97280.19;;;3.75;100.00
47330;BME280;33060;50.178;7.570;2023-12-07T00:29:12;97291.22;;;3.36;100.00
47330;BME280;33060;50.178;7.570;2023-12-07T00:31:39;97292.97;;;3.12;100.00
47330;BME280;33060;50.178;7.570;2023-12-07T00:34:05;97291.88;;;3.64;100.00
47330;BME280;33060;50.178;7.570;2023-12-07T00:36:32;97294.25;;;2.77;100.00
47330;BME280;33060;50.178;7.570;2023-12-07T00:39:00;97295.19;;;3.46;100.00
47330;BME280;33060;50.178;7.570;2023-12-07T00:41:27;97290.44;;;3.57;100.00
47330;BME280;33060;50.178;7.570;2023-12-07T00:43:53;97297.47;;;3.77;100.00
47330;BME280;33060;50.178;7.570;2023-12-07T00:46:20;97295.56;;;3.14;100.00
47330;BME280;33060;50.178;7.570;2023-12-07T00:48:46;97302.78;;;3.29;100.00
47330;BME280;33060;50.178;7.570;2023-12-07T00:51:13;97304.59;;;3.27;100.00
47330;BME280;33060;50.178;7.570;2023-12-07T00:53:41;97298.06;;;3.38;100.00
47330;BME280;33060;50.178;7.570;2023-12-07T00:56:08;97297.63;;;3.27;100.00
47330;BME280;33060;50.178;7.570;2023-12-07T00:58:35;97305.03;;;2.66;100.00
47330;BME280;33060;50.178;7.570;2023-12-07T01:01:03;97309.94;;;3.24;100.00
47330;BME280;33060;50.178;7.570;2023-12-07T01:03:29;97310.88;;;3.21;100.00
47330;BME280;33060;50.178;7.570;2023-12-07T01:05:56;97311.41;;;3.31;100.00
47330;BME280;33060;50.178;7.570;2023-12-07T01:08:23;97314.38;;;3.22;100.00
47330;BME280;33060;50.178;7.570;2023-12-07T01:10:50;97326.03;;;2.37;100.00
47330;BME280;33060;50.178;7.570;2023-12-07T01:13:17;97317.59;;;2.80;100.00
47330;BME280;33060;50.178;7.570;2023-12-07T01:15:43;97320.28;;;3.02;100.00
47330;BME280;33060;50.178;7.570;2023-12-07T01:18:10;97321.41;;;2.95;100.00
47330;BME280;33060;50.178;7.570;2023-12-07T01:20:37;97309.88;;;3.25;100.00
47330;BME280;33060;50.178;7.570;2023-12-07T01:23:03;97308.19;;;3.24;100.00
47330;BME280;33060;50.178;7.570;2023-12-07T01:25:30;97323.25;;;2.15;100.00
47330;BME280;33060;50.178;7.570;2023-12-07T01:27:58;97326.38;;;2.52;100.00
47330;BME280;33060;50.178;7.570;2023-12-07T01:30:25;97321.47;;;2.93;100.00
47330;BME280;33060;50.178;7.570;2023-12-07T01:32:51;97326.78;;;2.65;100.00
47330;BME280;33060;50.178;7.570;2023-12-07T01:35:18;97318.91;;;2.92;100.00
47330;BME280;33060;50.178;7.570;2023-12-07T01:37:45;97320.25;;;3.27;100.00
47330;BME280;33060;50.178;7.570;2023-12-07T01:40:12;97316.66;;;3.29;100.00
47330;BME280;33060;50.178;7.570;2023-12-07T01:42:39;97328.81;;;3.30;100.00
47330;BME280;33060;50.178;7.570;2023-12-07T01:45:06;97314.53;;;3.40;100.00
47330;BME280;33060;50.178;7.570;2023-12-07T01:47:35;97311.75;;;3.22;100.00
47330;BME280;33060;50.178;7.570;2023-12-07T01:50:03;97325.78;;;3.18;100.00
47330;BME280;33060;50.178;7.570;2023-12-07T01:52:38;97325.00;;;2.41;100.00
47330;BME280;33060;50.178;7.570;2023-12-07T01:55:09;97321.91;;;2.30;100.00
47330;BME280;33060;50.178;7.570;2023-12-07T01:57:37;97327.13;;;2.30;100.00
47330;BME280;33060;50.178;7.570;2023-12-07T02:00:03;97328.03;;;2.29;100.00
47330;BME280;33060;50.178;7.570;2023-12-07T02:02:31;97324.25;;;2.89;100.00
47330;BME280;33060;50.178;7.570;2023-12-07T02:05:00;97324.25;;;3.12;100.00
47330;BME280;33060;50.178;7.570;2023-12-07T02:07:27;97327.91;;;2.83;100.00
47330;BME280;33060;50.178;7.570;2023-12-07T02:09:54;97331.22;;;3.11;100.00
47330;BME280;33060;50.178;7.570;2023-12-07T02:12:21;97327.44;;;2.95;100.00
47330;BME280;33060;50.178;7.570;2023-12-07T02:14:48;97323.53;;;3.08;100.00
47330;BME280;33060;50.178;7.570;2023-12-07T02:17:21;97342.63;;;2.33;100.00
47330;BME280;33060;50.178;7.570;2023-12-07T02:19:57;97328.53;;;3.15;100.00
47330;BME280;33060;50.178;7.570;2023-12-07T02:22:34;97332.63;;;3.22;100.00
47330;BME280;33060;50.178;7.570;2023-12-07T02:25:07;97331.03;;;3.41;100.00
47330;BME280;33060;50.178;7.570;2023-12-07T02:27:42;97327.72;;;3.36;100.00
47330;BME280;33060;50.178;7.570;2023-12-07T02:30:10;97339.09;;;2.85;100.00
47330;BME280;33060;50.178;7.570;2023-12-07T02:32:39;97332.88;;;3.37;100.00
47330;BME280;33060;50.178;7.570;2023-12-07T02:35:08;97335.31;;;3.42;100.00
47330;BME280;33060;50.178;7.570;2023-12-07T02:37:42;97350.75;;;3.48;100.00
47330;BME280;33060;50.178;7.570;2023-12-07T02:40:10;97345.78;;;3.87;100.00
47330;BME280;33060;50.178;7.570;2023-12-07T02:42:41;97345.16;;;3.81;100.00
47330;BME280;33060;50.178;7.570;2023-12-07T02:45:10;97356.13;;;3.67;100.00
47330;BME280;33060;50.178;7.570;2023-12-07T02:47:37;97356.75;;;3.95;100.00
47330;BME280;33060;50.178;7.570;2023-12-07T02:50:07;97362.97;;;4.15;100.00
47330;BME280;33060;50.178;7.570;2023-12-07T02:52:34;97353.06;;;4.23;100.00
47330;BME280;33060;50.178;7.570;2023-12-07T02:55:01;97356.25;;;4.09;100.00
47330;BME280;33060;50.178;7.570;2023-12-07T02:57:29;97344.78;;;4.34;100.00
47330;BME280;33060;50.178;7.570;2023-12-07T02:59:56;97335.56;;;4.47;100.00
47330;BME280;33060;50.178;7.570;2023-12-07T03:02:23;97336.09;;;4.55;100.00
47330;BME280;33060;50.178;7.570;2023-12-07T03:04:51;97341.63;;;4.25;100.00
47330;BME280;33060;50.178;7.570;2023-12-07T03:07:17;97348.91;;;4.39;100.00
47330;BME280;33060;50.178;7.570;2023-12-07T03:09:44;97340.47;;;4.33;100.00
47330;BME280;33060;50.178;7.570;2023-12-07T03:12:11;97337.50;;;4.42;100.00
47330;BME280;33060;50.178;7.570;2023-12-07T03:14:37;97346.72;;;4.50;100.00
47330;BME280;33060;50.178;7.570;2023-12-07T03:17:04;97344.63;;;3.94;100.00
47330;BME280;33060;50.178;7.570;2023-12-07T03:19:31;97341.44;;;4.52;100.00
47330;BME280;33060;50.178;7.570;2023-12-07T03:21:57;97342.75;;;4.82;100.00
47330;BME280;33060;50.178;7.570;2023-12-07T03:24:24;97342.78;;;4.40;100.00
47330;BME280;33060;50.178;7.570;2023-12-07T03:26:51;97337.28;;;4.04;100.00
47330;BME280;33060;50.178;7.570;2023-12-07T03:29:17;97343.09;;;4.33;100.00
47330;BME280;33060;50.178;7.570;2023-12-07T03:31:44;97341.69;;;4.46;100.00
47330;BME280;33060;50.178;7.570;2023-12-07T03:34:11;97332.94;;;4.47;100.00
47330;BME280;33060;50.178;7.570;2023-12-07T03:36:39;97341.69;;;4.46;100.00
47330;BME280;33060;50.178;7.570;2023-12-07T03:39:06;97348.22;;;4.36;100.00
47330;BME280;33060;50.178;7.570;2023-12-07T03:41:32;97350.59;;;4.20;100.00
47330;BME280;33060;50.178;7.570;2023-12-07T03:43:59;97341.00;;;4.63;100.00
47330;BME280;33060;50.178;7.570;2023-12-07T03:46:26;97333.00;;;4.45;100.00
47330;BME280;33060;50.178;7.570;2023-12-07T03:48:52;97340.53;;;4.53;100.00
47330;BME280;33060;50.178;7.570;2023-12-07T03:51:19;97337.00;;;4.54;100.00
47330;BME280;33060;50.178;7.570;2023-12-07T03:53:46;97341.59;;;4.69;100.00
47330;BME280;33060;50.178;7.570;2023-12-07T03:56:23;97336.25;;;4.50;100.00
47330;BME280;33060;50.178;7.570;2023-12-07T03:58:50;97329.41;;;4.48;100.00
47330;BME280;33060;50.178;7.570;2023-12-07T04:01:17;97329.25;;;4.52;100.00
47330;BME280;33060;50.178;7.570;2023-12-07T04:03:47;97324.69;;;4.78;100.00
47330;BME280;33060;50.178;7.570;2023-12-07T04:06:13;97316.47;;;4.86;100.00
47330;BME280;33060;50.178;7.570;2023-12-07T04:08:40;97312.06;;;4.88;100.00
47330;BME280;33060;50.178;7.570;2023-12-07T04:11:07;97323.56;;;4.63;100.00
47330;BME280;33060;50.178;7.570;2023-12-07T04:13:33;97319.72;;;4.72;100.00
47330;BME280;33060;50.178;7.570;2023-12-07T04:16:00;97331.50;;;4.60;100.00
47330;BME280;33060;50.178;7.570;2023-12-07T04:18:27;97330.53;;;4.63;100.00
47330;BME280;33060;50.178;7.570;2023-12-07T04:20:53;97327.84;;;4.44;100.00
47330;BME280;33060;50.178;7.570;2023-12-07T04:23:20;97326.63;;;4.52;100.00
47330;BME280;33060;50.178;7.570;2023-12-07T04:25:47;97330.63;;;4.61;100.00
47330;BME280;33060;50.178;7.570;2023-12-07T04:28:14;97335.78;;;4.41;100.00
47330;BME280;33060;50.178;7.570;2023-12-07T04:30:40;97337.97;;;4.51;100.00
47330;BME280;33060;50.178;7.570;2023-12-07T04:33:07;97337.63;;;4.39;100.00
47330;BME280;33060;50.178;7.570;2023-12-07T04:35:34;97338.00;;;4.30;100.00
47330;BME280;33060;50.178;7.570;2023-12-07T04:38:01;97337.16;;;4.07;100.00
47330;BME280;33060;50.178;7.570;2023-12-07T04:40:29;97335.88;;;3.95;100.00
47330;BME280;33060;50.178;7.570;2023-12-07T04:42:56;97342.72;;;3.76;100.00
47330;BME280;33060;50.178;7.570;2023-12-07T04:45:22;97344.56;;;2.79;100.00
47330;BME280;33060;50.178;7.570;2023-12-07T04:47:49;97336.88;;;3.48;100.00
47330;BME280;33060;50.178;7.570;2023-12-07T04:50:16;97331.59;;;3.49;100.00
47330;BME280;33060;50.178;7.570;2023-12-07T04:52:42;97343.47;;;3.09;100.00
47330;BME280;33060;50.178;7.570;2023-12-07T04:55:09;97347.19;;;2.52;100.00
47330;BME280;33060;50.178;7.570;2023-12-07T04:57:36;97347.19;;;3.02;100.00
47330;BME280;33060;50.178;7.570;2023-12-07T05:00:03;97342.91;;;3.25;100.00
47330;BME280;33060;50.178;7.570;2023-12-07T05:02:33;97351.78;;;3.19;100.00
47330;BME280;33060;50.178;7.570;2023-12-07T05:05:00;97348.25;;;3.45;100.00
47330;BME280;33060;50.178;7.570;2023-12-07T05:07:26;97349.94;;;3.46;100.00
47330;BME280;33060;50.178;7.570;2023-12-07T05:09:53;97343.31;;;3.61;100.00
47330;BME280;33060;50.178;7.570;2023-12-07T05:12:20;97348.38;;;3.87;100.00
47330;BME280;33060;50.178;7.570;2023-12-07T05:14:47;97352.41;;;3.73;100.00
47330;BME280;33060;50.178;7.570;2023-12-07T05:17:13;97352.59;;;3.91;100.00
47330;BME280;33060;50.178;7.570;2023-12-07T05:19:43;97355.31;;;4.10;100.00
47330;BME280;33060;50.178;7.570;2023-12-07T05:22:10;97357.41;;;3.79;100.00
47330;BME280;33060;50.178;7.570;2023-12-07T05:24:37;97361.97;;;3.74;100.00
47330;BME280;33060;50.178;7.570;2023-12-07T05:27:04;97362.41;;;3.85;100.00
47330;BME280;33060;50.178;7.570;2023-12-07T05:29:31;97359.25;;;3.98;100.00
47330;BME280;33060;50.178;7.570;2023-12-07T05:31:58;97349.53;;;3.80;100.00
47330;BME280;33060;50.178;7.570;2023-12-07T05:34:24;97353.63;;;3.64;100.00
47330;BME280;33060;50.178;7.570;2023-12-07T05:36:51;97353.78;;;3.83;100.00
47330;BME280;33060;50.178;7.570;2023-12-07T05:39:18;97354.44;;;3.66;100.00
47330;BME280;33060;50.178;7.570;2023-12-07T05:41:44;97360.84;;;4.03;100.00
47330;BME280;33060;50.178;7.570;2023-12-07T05:44:13;97353.66;;;4.08;100.00
47330;BME280;33060;50.178;7.570;2023-12-07T05:46:40;97350.84;;;4.34;100.00
47330;BME280;33060;50.178;7.570;2023-12-07T05:49:10;97355.00;;;4.40;100.00
47330;BME280;33060;50.178;7.570;2023-12-07T05:51:37;97351.53;;;4.39;100.00
47330;BME280;33060;50.178;7.570;2023-12-07T05:54:04;97366.53;;;4.12;100.00
47330;BME280;33060;50.178;7.570;2023-12-07T05:56:32;97366.28;;;4.40;100.00
47330;BME280;33060;50.178;7.570;2023-12-07T05:58:58;97361.31;;;3.90;100.00
47330;BME280;33060;50.178;7.570;2023-12-07T06:01:25;97360.00;;;3.57;100.00
47330;BME280;33060;50.178;7.570;2023-12-07T06:03:52;97370.69;;;3.73;100.00
47330;BME280;33060;50.178;7.570;2023-12-07T06:06:19;97368.38;;;3.65;100.00
47330;BME280;33060;50.178;7.570;2023-12-07T06:08:47;97371.03;;;3.63;100.00
47330;BME280;33060;50.178;7.570;2023-12-07T06:11:14;97377.59;;;3.27;100.00
47330;BME280;33060;50.178;7.570;2023-12-07T06:13:41;97387.13;;;3.51;100.00
47330;BME280;33060;50.178;7.570;2023-12-07T06:16:11;97386.78;;;3.37;100.00
47330;BME280;33060;50.178;7.570;2023-12-07T06:18:38;97393.66;;;3.63;100.00
47330;BME280;33060;50.178;7.570;2023-12-07T06:21:05;97399.91;;;3.82;100.00
47330;BME280;33060;50.178;7.570;2023-12-07T06:23:32;97392.97;;;3.81;100.00
47330;BME280;33060;50.178;7.570;2023-12-07T06:26:01;97394.78;;;4.03;100.00
47330;BME280;33060;50.178;7.570;2023-12-07T06:28:28;97402.56;;;3.81;100.00
47330;BME280;33060;50.178;7.570;2023-12-07T06:30:55;97408.44;;;4.09;100.00
47330;BME280;33060;50.178;7.570;2023-12-07T06:33:23;97404.50;;;3.76;100.00
47330;BME280;33060;50.178;7.570;2023-12-07T06:35:50;97398.03;;;3.86;100.00
47330;BME280;33060;50.178;7.570;2023-12-07T06:38:17;97400.91;;;4.02;100.00
47330;BME280;33060;50.178;7.570;2023-12-07T06:40:47;97397.28;;;4.28;100.00
47330;BME280;33060;50.178;7.570;2023-12-07T06:43:14;97405.63;;;4.14;100.00
47330;BME280;33060;50.178;7.570;2023-12-07T06:45:41;97410.50;;;4.01;100.00
47330;BME280;33060;50.178;7.570;2023-12-07T06:48:08;97400.91;;;4.02;100.00
47330;BME280;33060;50.178;7.570;2023-12-07T06:50:35;97399.16;;;4.24;100.00
47330;BME280;33060;50.178;7.570;2023-12-07T06:53:01;97402.00;;;4.18;100.00
47330;BME280;33060;50.178;7.570;2023-12-07T06:55:28;97396.28;;;4.30;100.00
47330;BME280;33060;50.178;7.570;2023-12-07T06:57:55;97390.44;;;3.08;100.00
47330;BME280;33060;50.178;7.570;2023-12-07T07:00:22;97383.47;;;4.02;100.00
47330;BME280;33060;50.178;7.570;2023-12-07T07:02:48;97375.81;;;4.41;100.00
47330;BME280;33060;50.178;7.570;2023-12-07T07:05:16;97369.94;;;4.36;100.00
47330;BME280;33060;50.178;7.570;2023-12-07T07:07:42;97369.84;;;4.17;100.00
47330;BME280;33060;50.178;7.570;2023-12-07T07:10:09;97372.56;;;3.69;100.00
47330;BME280;33060;50.178;7.570;2023-12-07T07:12:36;97377.63;;;3.50;100.00
47330;BME280;33060;50.178;7.570;2023-12-07T07:15:03;97365.94;;;3.84;100.00
47330;BME280;33060;50.178;7.570;2023-12-07T07:17:30;97363.38;;;3.82;100.00
47330;BME280;33060;50.178;7.570;2023-12-07T07:19:59;97364.38;;;3.78;100.00
47330;BME280;33060;50.178;7.570;2023-12-07T07:22:26;97360.09;;;3.99;100.00
47330;BME280;33060;50.178;7.570;2023-12-07T07:24:52;97353.25;;;4.18;100.00
47330;BME280;33060;50.178;7.570;2023-12-07T07:27:19;97351.38;;;4.00;100.00
47330;BME280;33060;50.178;7.570;2023-12-07T07:29:46;97342.09;;;3.93;100.00
47330;BME280;33060;50.178;7.570;2023-12-07T07:32:12;97355.16;;;3.69;100.00
47330;BME280;33060;50.178;7.570;2023-12-07T07:34:39;97349.56;;;4.02;100.00
47330;BME280;33060;50.178;7.570;2023-12-07T07:37:06;97352.88;;;3.84;100.00
47330;BME280;33060;50.178;7.570;2023-12-07T07:39:35;97356.59;;;4.00;100.00
47330;BME280;33060;50.178;7.570;2023-12-07T07:42:02;97356.81;;;3.94;100.00
47330;BME280;33060;50.178;7.570;2023-12-07T07:44:29;97358.59;;;3.93;100.00
47330;BME280;33060;50.178;7.570;2023-12-07T07:46:56;97361.97;;;3.95;100.00
47330;BME280;33060;50.178;7.570;2023-12-07T07:49:23;97355.97;;;4.15;100.00
47330;BME280;33060;50.178;7.570;2023-12-07T07:51:50;97353.63;;;4.09;100.00
47330;BME280;33060;50.178;7.570;2023-12-07T07:54:17;97351.03;;;4.09;100.00
47330;BME280;33060;50.178;7.570;2023-12-07T07:56:44;97358.13;;;4.28;99.91
47330;BME280;33060;50.178;7.570;2023-12-07T07:59:11;97347.16;;;4.40;99.96
47330;BME280;33060;50.178;7.570;2023-12-07T08:01:37;97344.91;;;4.31;99.98
47330;BME280;33060;50.178;7.570;2023-12-07T08:04:04;97348.28;;;4.12;99.89
47330;BME280;33060;50.178;7.570;2023-12-07T08:06:31;97350.16;;;4.09;99.92
47330;BME280;33060;50.178;7.570;2023-12-07T08:09:02;97340.22;;;4.18;100.00
47330;BME280;33060;50.178;7.570;2023-12-07T08:11:30;97340.94;;;4.00;100.00
47330;BME280;33060;50.178;7.570;2023-12-07T08:13:59;97341.25;;;3.92;100.00
47330;BME280;33060;50.178;7.570;2023-12-07T08:16:25;97332.34;;;3.96;100.00
47330;BME280;33060;50.178;7.570;2023-12-07T08:18:53;97327.44;;;4.33;100.00
47330;BME280;33060;50.178;7.570;2023-12-07T08:21:21;97330.63;;;4.61;99.38
47330;BME280;33060;50.178;7.570;2023-12-07T08:23:55;97321.66;;;4.87;96.66
47330;BME280;33060;50.178;7.570;2023-12-07T08:26:21;97325.13;;;4.88;94.84
47330;BME280;33060;50.178;7.570;2023-12-07T08:28:48;97326.03;;;5.07;95.71
47330;BME280;33060;50.178;7.570;2023-12-07T08:31:15;97322.63;;;4.85;94.06
47330;BME280;33060;50.178;7.570;2023-12-07T08:33:41;97318.22;;;4.87;95.01
47330;BME280;33060;50.178;7.570;2023-12-07T08:36:08;97328.16;;;4.14;93.70
47330;BME280;33060;50.178;7.570;2023-12-07T08:38:35;97336.31;;;4.29;97.40
47330;BME280;33060;50.178;7.570;2023-12-07T08:41:02;97327.19;;;4.39;97.91
47330;BME280;33060;50.178;7.570;2023-12-07T08:43:29;97331.97;;;4.49;96.29
47330;BME280;33060;50.178;7.570;2023-12-07T08:45:57;97333.47;;;4.55;97.90
47330;BME280;33060;50.178;7.570;2023-12-07T08:48:27;97335.47;;;4.70;96.93
47330;BME280;33060;50.178;7.570;2023-12-07T08:50:54;97333.28;;;4.17;97.01
47330;BME280;33060;50.178;7.570;2023-12-07T08:53:21;97336.75;;;4.18;97.77
47330;BME280;33060;50.178;7.570;2023-12-07T08:55:47;97339.63;;;4.54;97.83
47330;BME280;33060;50.178;7.570;2023-12-07T08:58:14;97334.41;;;4.32;97.78
47330;BME280;33060;50.178;7.570;2023-12-07T09:00:41;97344.72;;;4.57;97.68
47330;BME280;33060;50.178;7.570;2023-12-07T09:03:07;97339.63;;;4.74;96.42
47330;BME280;33060;50.178;7.570;2023-12-07T09:05:34;97346.88;;;4.68;97.08
47330;BME280;33060;50.178;7.570;2023-12-07T09:08:01;97340.22;;;4.61;96.72
47330;BME280;33060;50.178;7.570;2023-12-07T09:10:28;97347.59;;;4.29;97.49
47330;BME280;33060;50.178;7.570;2023-12-07T09:12:55;97343.72;;;4.17;99.82
47330;BME280;33060;50.178;7.570;2023-12-07T09:15:22;97347.06;;;4.21;99.00
47330;BME280;33060;50.178;7.570;2023-12-07T09:17:49;97351.50;;;4.19;100.00
47330;BME280;33060;50.178;7.570;2023-12-07T09:20:16;97350.59;;;4.20;99.37
47330;BME280;33060;50.178;7.570;2023-12-07T09:22:43;97342.44;;;3.84;100.00
47330;BME280;33060;50.178;7.570;2023-12-07T09:25:11;97347.22;;;4.16;100.00
47330;BME280;33060;50.178;7.570;2023-12-07T09:27:39;97352.91;;;4.48;99.71
47330;BME280;33060;50.178;7.570;2023-12-07T09:30:07;97353.59;;;4.31;97.52
47330;BME280;33060;50.178;7.570;2023-12-07T09:32:39;97345.22;;;4.23;98.37
47330;BME280;33060;50.178;7.570;2023-12-07T09:35:07;97345.75;;;4.53;98.57
47330;BME280;33060;50.178;7.570;2023-12-07T09:37:34;97338.00;;;4.72;97.71
47330;BME280;33060;50.178;7.570;2023-12-07T09:40:02;97337.47;;;5.04;95.69
47330;BME280;33060;50.178;7.570;2023-12-07T09:42:31;97336.44;;;4.88;94.07
47330;BME280;33060;50.178;7.570;2023-12-07T09:45:03;97335.03;;;4.59;95.27
47330;BME280;33060;50.178;7.570;2023-12-07T09:47:32;97336.16;;;4.53;96.09
47330;BME280;33060;50.178;7.570;2023-12-07T09:50:05;97329.78;;;4.61;96.25
47330;BME280;33060;50.178;7.570;2023-12-07T09:52:32;97325.38;;;4.81;96.37
47330;BME280;33060;50.178;7.570;2023-12-07T09:54:59;97317.34;;;4.86;95.81
47330;BME280;33060;50.178;7.570;2023-12-07T09:57:28;97324.41;;;5.04;96.68
47330;BME280;33060;50.178;7.570;2023-12-07T09:59:57;97310.94;;;5.14;96.18
47330;BME280;33060;50.178;7.570;2023-12-07T10:02:37;97315.75;;;5.42;93.91
47330;BME280;33060;50.178;7.570;2023-12-07T10:05:06;97313.00;;;5.45;93.77
47330;BME280;33060;50.178;7.570;2023-12-07T10:07:34;97312.41;;;5.19;96.67
47330;BME280;33060;50.178;7.570;2023-12-07T10:10:02;97321.72;;;4.65;98.40
47330;BME280;33060;50.178;7.570;2023-12-07T10:12:30;97317.59;;;5.39;96.94
47330;BME280;33060;50.178;7.570;2023-12-07T10:14:57;97318.78;;;5.32;94.54
47330;BME280;33060;50.178;7.570;2023-12-07T10:17:24;97329.75;;;5.22;95.85
47330;BME280;33060;50.178;7.570;2023-12-07T10:20:07;97316.59;;;5.03;98.59
47330;BME280;33060;50.178;7.570;2023-12-07T10:22:39;97306.91;;;5.25;98.51
47330;BME280;33060;50.178;7.570;2023-12-07T10:25:07;97305.56;;;5.35;96.91
47330;BME280;33060;50.178;7.570;2023-12-07T10:27:34;97303.31;;;4.89;96.21
47330;BME280;33060;50.178;7.570;2023-12-07T10:30:01;97303.59;;;5.78;95.79
47330;BME280;33060;50.178;7.570;2023-12-07T10:32:28;97291.75;;;6.07;94.13
47330;BME280;33060;50.178;7.570;2023-12-07T10:34:55;97293.16;;;6.14;92.86
47330;BME280;33060;50.178;7.570;2023-12-07T10:37:25;97289.78;;;6.12;90.07
47330;BME280;33060;50.178;7.570;2023-12-07T10:39:52;97285.28;;;5.97;90.52
47330;BME280;33060;50.178;7.570;2023-12-07T10:42:24;97283.66;;;5.94;91.08
47330;BME280;33060;50.178;7.570;2023-12-07T10:44:57;97289.84;;;6.11;91.63
47330;BME280;33060;50.178;7.570;2023-12-07T10:47:25;97277.38;;;6.16;89.57
47330;BME280;33060;50.178;7.570;2023-12-07T10:49:55;97265.84;;;6.37;88.61
47330;BME280;33060;50.178;7.570;2023-12-07T10:52:26;97265.81;;;6.03;91.61
47330;BME280;33060;50.178;7.570;2023-12-07T10:55:06;97263.91;;;6.23;89.61
47330;BME280;33060;50.178;7.570;2023-12-07T10:57:34;97261.53;;;6.19;90.98
47330;BME280;33060;50.178;7.570;2023-12-07T11:00:01;97254.59;;;6.18;93.68
47330;BME280;33060;50.178;7.570;2023-12-07T11:02:29;97241.56;;;6.16;93.09
47330;BME280;33060;50.178;7.570;2023-12-07T11:04:59;97234.94;;;6.61;88.46
47330;BME280;33060;50.178;7.570;2023-12-07T11:07:37;97232.53;;;6.74;86.41
47330;BME280;33060;50.178;7.570;2023-12-07T11:10:12;97233.88;;;6.48;84.10
47330;BME280;33060;50.178;7.570;2023-12-07T11:12:51;97216.66;;;6.42;85.73
47330;BME280;33060;50.178;7.570;2023-12-07T11:15:19;97215.66;;;6.62;81.82
47330;BME280;33060;50.178;7.570;2023-12-07T11:17:50;97208.13;;;6.39;83.65
47330;BME280;33060;50.178;7.570;2023-12-07T11:20:19;97200.94;;;6.60;83.88
47330;BME280;33060;50.178;7.570;2023-12-07T11:22:47;97191.53;;;6.56;82.14
47330;BME280;33060;50.178;7.570;2023-12-07T11:25:15;97184.31;;;6.61;83.67
47330;BME280;33060;50.178;7.570;2023-12-07T11:27:44;97188.28;;;6.68;85.63
47330;BME280;33060;50.178;7.570;2023-12-07T11:30:14;97189.16;;;6.51;87.26
47330;BME280;33060;50.178;7.570;2023-12-07T11:32:42;97188.00;;;6.57;86.58
47330;BME280;33060;50.178;7.570;2023-12-07T11:35:12;97177.53;;;6.39;87.38
47330;BME280;33060;50.178;7.570;2023-12-07T11:38:02;97170.63;;;6.21;87.85
47330;BME280;33060;50.178;7.570;2023-12-07T11:40:42;97170.84;;;5.99;89.24
47330;BME280;33060;50.178;7.570;2023-12-07T11:46:07;97159.94;;;5.91;91.33
47330;BME280;33060;50.178;7.570;2023-12-07T11:48:34;97156.56;;;5.87;91.39
47330;BME280;33060;50.178;7.570;2023-12-07T11:53:36;97150.47;;;5.70;92.96
47330;BME280;33060;50.178;7.570;2023-12-07T11:56:10;97149.91;;;5.27;93.09
47330;BME280;33060;50.178;7.570;2023-12-07T11:58:38;97148.69;;;5.53;93.26
47330;BME280;33060;50.178;7.570;2023-12-07T12:01:07;97131.97;;;5.55;92.86
47330;BME280;33060;50.178;7.570;2023-12-07T12:03:36;97136.16;;;5.59;92.60
47330;BME280;33060;50.178;7.570;2023-12-07T12:06:03;97139.19;;;5.33;93.03
47330;BME280;33060;50.178;7.570;2023-12-07T12:08:31;97137.50;;;5.32;94.54
47330;BME280;33060;50.178;7.570;2023-12-07T12:10:59;97134.22;;;5.27;93.67
47330;BME280;33060;50.178;7.570;2023-12-07T12:13:26;97130.16;;;5.38;95.18
47330;BME280;33060;50.178;7.570;2023-12-07T12:15:53;97125.22;;;5.51;93.10
47330;BME280;33060;50.178;7.570;2023-12-07T12:18:20;97133.38;;;5.26;94.03
47330;BME280;33060;50.178;7.570;2023-12-07T12:20:50;97138.19;;;5.35;93.55
47330;BME280;33060;50.178;7.570;2023-12-07T12:23:17;97130.16;;;5.38;94.29
47330;BME280;33060;50.178;7.570;2023-12-07T12:25:45;97129.56;;;5.33;95.13
47330;BME280;33060;50.178;7.570;2023-12-07T12:28:17;97123.16;;;5.75;93.67
47330;BME280;33060;50.178;7.570;2023-12-07T12:30:49;97130.56;;;5.84;91.34
47330;BME280;33060;50.178;7.570;2023-12-07T12:33:17;97122.53;;;5.87;91.30
47330;BME280;33060;50.178;7.570;2023-12-07T12:35:44;97119.78;;;6.08;91.12
47330;BME280;33060;50.178;7.570;2023-12-07T12:38:11;97112.25;;;6.02;89.20
47330;BME280;33060;50.178;7.570;2023-12-07T12:40:52;97108.97;;;6.31;88.39
47330;BME280;33060;50.178;7.570;2023-12-07T12:43:20;97114.84;;;6.36;86.39
47330;BME280;33060;50.178;7.570;2023-12-07T12:45:49;97107.94;;;6.67;85.83
47330;BME280;33060;50.178;7.570;2023-12-07T12:48:32;97115.31;;;6.27;87.00
47330;BME280;33060;50.178;7.570;2023-12-07T12:51:07;97114.56;;;5.90;86.61
47330;BME280;33060;50.178;7.570;2023-12-07T12:53:34;97110.59;;;5.82;87.51
47330;BME280;33060;50.178;7.570;2023-12-07T12:56:03;97105.16;;;6.04;84.76
47330;BME280;33060;50.178;7.570;2023-12-07T12:58:29;97103.00;;;6.12;84.73
47330;BME280;33060;50.178;7.570;2023-12-07T13:00:57;97098.72;;;5.93;86.63
47330;BME280;33060;50.178;7.570;2023-12-07T13:03:24;97109.25;;;5.92;83.54
47330;BME280;33060;50.178;7.570;2023-12-07T13:05:51;97105.72;;;5.93;84.34
47330;BME280;33060;50.178;7.570;2023-12-07T13:08:18;97107.97;;;5.64;87.25
47330;BME280;33060;50.178;7.570;2023-12-07T13:10:45;97106.50;;;5.42;87.89
47330;BME280;33060;50.178;7.570;2023-12-07T13:13:11;97095.03;;;5.44;88.40
47330;BME280;33060;50.178;7.570;2023-12-07T13:15:38;97099.75;;;5.72;86.14